Time;durP1;ratioP1;P1;durP2;ratioP2;P2;SDS_P1;SDS_P2;PMS_P1;PMS_P2;Temp;Humidity;BMP_temperature;BMP_pressure;BME280_temperature;BME280_humidity;BME280_pressure;Samples;Min_cycle;Max_cycle;Signal;HPM_P1;HPM_P2
2023/12/07 00:02:00;;;;;;;62.40;22.27;;;;;2.40;101454.00;;;;10066906;29;20659;-80
2023/12/07 00:07:02;;;;;;;63.07;22.80;;;;;2.40;101450.00;;;;10066471;29;20226;-80
2023/12/07 00:12:03;;;;;;;62.57;22.80;;;;;2.40;101443.00;;;;10059118;29;20315;-79
2023/12/07 00:17:05;;;;;;;63.67;21.97;;;;;2.40;101444.00;;;;10060092;29;20232;-80
2023/12/07 00:22:06;;;;;;;63.57;21.13;;;;;2.40;101446.00;;;;10043358;29;21061;-80
2023/12/07 00:27:07;;;;;;;56.03;20.80;;;;;2.40;101463.00;;;;10057149;29;20232;-80
2023/12/07 00:32:08;;;;;;;60.40;20.80;;;;;2.40;101458.00;;;;10047295;29;20230;-79
2023/12/07 00:37:09;;;;;;;48.53;19.80;;;;;2.40;101441.00;;;;10047814;29;20311;-80
2023/12/07 00:42:11;;;;;;;60.10;23.00;;;;;2.40;101437.00;;;;10027541;29;20243;-80
2023/12/07 00:47:12;;;;;;;61.70;20.43;;;;;2.50;101438.00;;;;10050484;29;20242;-80
2023/12/07 00:52:13;;;;;;;51.53;20.57;;;;;2.40;101431.00;;;;10051311;29;20262;-79
2023/12/07 00:57:14;;;;;;;61.17;20.63;;;;;2.40;101434.00;;;;10036514;29;20238;-81
2023/12/07 01:02:15;;;;;;;53.33;20.37;;;;;2.40;101430.00;;;;10043254;29;20238;-80
2023/12/07 01:07:17;;;;;;;54.27;22.73;;;;;2.30;101432.00;;;;10030438;29;20263;-81
2023/12/07 01:12:18;;;;;;;58.57;21.47;;;;;2.40;101432.00;;;;10049871;29;20302;-81
2023/12/07 01:17:19;;;;;;;69.70;24.37;;;;;2.40;101439.00;;;;10059875;29;20215;-82
2023/12/07 01:22:20;;;;;;;50.57;21.50;;;;;2.40;101436.00;;;;10061413;29;20236;-82
2023/12/07 01:27:22;;;;;;;52.67;20.13;;;;;2.40;101428.00;;;;10030110;29;20300;-81
2023/12/07 01:32:23;;;;;;;49.93;19.03;;;;;2.30;101428.00;;;;10062176;29;20262;-82
2023/12/07 01:37:25;;;;;;;52.27;19.67;;;;;2.30;101427.00;;;;10060533;29;20292;-80
2023/12/07 01:42:26;;;;;;;55.67;19.30;;;;;2.30;101425.00;;;;10054265;29;21126;-81
2023/12/07 01:47:27;;;;;;;48.97;19.80;;;;;2.30;101423.00;;;;10050039;29;20224;-81
2023/12/07 01:52:29;;;;;;;54.90;20.27;;;;;2.30;101417.00;;;;10051482;29;20229;-81
2023/12/07 01:57:30;;;;;;;57.77;22.40;;;;;2.40;101419.00;;;;10047246;29;20239;-80
2023/12/07 02:02:32;;;;;;;53.10;21.30;;;;;2.40;101421.00;;;;10024292;29;20680;-83
2023/12/07 02:07:35;;;;;;;55.03;20.77;;;;;2.40;101418.00;;;;10043713;29;20233;-80
2023/12/07 02:12:36;;;;;;;56.83;20.57;;;;;2.40;101420.00;;;;10060277;29;20242;-81
2023/12/07 02:17:43;;;;;;;47.33;19.30;;;;;2.40;101425.00;;;;10071877;29;20323;-81
2023/12/07 02:23:06;;;;;;;44.00;18.67;;;;;2.40;101423.00;;;;10051842;29;20246;-81
2023/12/07 02:28:07;;;;;;;46.63;21.33;;;;;2.30;101424.00;;;;10045627;29;25991;-81
2023/12/07 02:33:08;;;;;;;44.97;19.53;;;;;2.30;101422.00;;;;10023576;29;20263;-81
2023/12/07 02:38:10;;;;;;;50.30;21.07;;;;;2.30;101428.00;;;;10049230;29;20228;-81
2023/12/07 02:43:12;;;;;;;46.43;22.47;;;;;2.30;101419.00;;;;10019247;29;20872;-81
2023/12/07 02:48:13;;;;;;;45.57;19.87;;;;;2.30;101423.00;;;;10053902;29;20235;-81
2023/12/07 02:53:14;;;;;;;37.93;18.83;;;;;2.30;101430.00;;;;10048079;29;21697;-81
2023/12/07 02:58:15;;;;;;;45.23;20.20;;;;;2.30;101411.00;;;;10059255;29;20284;-81
2023/12/07 03:03:16;;;;;;;48.67;20.87;;;;;2.40;101412.00;;;;10070589;29;20323;-80
2023/12/07 03:08:18;;;;;;;50.30;21.67;;;;;2.40;101415.00;;;;10042097;29;20231;-81
2023/12/07 03:13:19;;;;;;;43.37;20.03;;;;;2.40;101416.00;;;;10041334;29;20715;-81
2023/12/07 03:18:20;;;;;;;43.87;20.37;;;;;2.50;101395.00;;;;10057177;29;20649;-80
2023/12/07 03:23:21;;;;;;;49.33;22.23;;;;;2.50;101403.00;;;;10041241;29;20330;-80
2023/12/07 03:28:23;;;;;;;47.57;20.30;;;;;2.50;101407.00;;;;10048012;29;20232;-80
2023/12/07 03:33:24;;;;;;;45.40;21.57;;;;;2.50;101417.00;;;;10049898;29;20276;-80
2023/12/07 03:38:25;;;;;;;49.90;22.23;;;;;2.60;101416.00;;;;10048596;29;20223;-80
2023/12/07 03:43:26;;;;;;;59.47;23.33;;;;;2.60;101423.00;;;;10037811;29;20319;-80
2023/12/07 03:48:27;;;;;;;47.93;21.73;;;;;2.60;101433.00;;;;10082442;29;20288;-80
2023/12/07 03:53:28;;;;;;;52.97;21.80;;;;;2.60;101436.00;;;;10066841;29;20324;-79
2023/12/07 03:58:30;;;;;;;46.40;20.47;;;;;2.60;101431.00;;;;10025708;29;20699;-79
2023/12/07 04:03:31;;;;;;;47.10;21.63;;;;;2.60;101427.00;;;;10035080;29;20247;-80
2023/12/07 04:08:33;;;;;;;35.13;18.03;;;;;2.70;101435.00;;;;10045120;29;20236;-80
2023/12/07 04:13:34;;;;;;;41.47;19.83;;;;;2.60;101436.00;;;;10051522;29;20246;-80
2023/12/07 04:18:35;;;;;;;41.43;17.53;;;;;2.60;101440.00;;;;10039891;29;20227;-79
2023/12/07 04:23:37;;;;;;;38.77;18.70;;;;;2.60;101430.00;;;;10046361;29;20241;-80
2023/12/07 04:28:38;;;;;;;39.33;18.60;;;;;2.60;101425.00;;;;10059562;29;20656;-83
2023/12/07 04:33:39;;;;;;;35.40;19.17;;;;;2.60;101412.00;;;;10030278;29;20231;-80
2023/12/07 04:38:41;;;;;;;33.97;18.97;;;;;2.60;101406.00;;;;10049706;29;20224;-81
2023/12/07 04:43:42;;;;;;;36.00;17.90;;;;;2.60;101406.00;;;;10070412;29;20877;-80
2023/12/07 04:48:43;;;;;;;40.97;20.40;;;;;2.60;101406.00;;;;10038821;29;20240;-80
2023/12/07 04:53:44;;;;;;;34.77;19.83;;;;;2.60;101413.00;;;;10074704;29;20249;-80
2023/12/07 04:58:45;;;;;;;33.90;18.67;;;;;2.60;101409.00;;;;10057673;29;20737;-80
2023/12/07 05:03:47;;;;;;;35.67;19.60;;;;;2.50;101400.00;;;;10044723;29;20315;-80
2023/12/07 05:08:48;;;;;;;36.37;17.67;;;;;2.50;101399.00;;;;10035500;29;20247;-80
2023/12/07 05:13:49;;;;;;;32.83;17.37;;;;;2.50;101392.00;;;;10024729;29;20694;-81
2023/12/07 05:18:51;;;;;;;35.87;18.83;;;;;2.50;101404.00;;;;10029943;29;20239;-82
2023/12/07 05:23:52;;;;;;;32.27;16.33;;;;;2.50;101404.00;;;;10056370;29;20230;-80
2023/12/07 05:28:53;;;;;;;35.03;16.53;;;;;2.50;101395.00;;;;10028007;29;20231;-80
2023/12/07 05:33:55;;;;;;;30.40;17.43;;;;;2.40;101381.00;;;;10043216;29;20220;-84
2023/12/07 05:38:57;;;;;;;33.37;18.80;;;;;2.40;101389.00;;;;10080977;29;20620;-87
2023/12/07 05:43:58;;;;;;;33.67;18.07;;;;;2.40;101388.00;;;;10077066;29;20231;-87
2023/12/07 05:48:59;;;;;;;30.40;15.70;;;;;2.40;101364.00;;;;10067257;29;20266;-88
2023/12/07 05:54:01;;;;;;;30.93;16.23;;;;;2.40;101350.00;;;;10075295;29;20232;-87
2023/12/07 05:59:02;;;;;;;31.27;16.83;;;;;2.40;101339.00;;;;10060626;29;20263;-86
2023/12/07 06:04:03;;;;;;;29.53;18.23;;;;;2.40;101342.00;;;;10041524;29;20518;-87
2023/12/07 06:09:08;;;;;;;31.23;17.77;;;;;2.40;101320.00;;;;10048478;29;20816;-87
2023/12/07 06:14:09;;;;;;;28.33;16.70;;;;;2.40;101319.00;;;;10051378;29;20287;-87
2023/12/07 06:19:10;;;;;;;34.50;17.33;;;;;2.40;101314.00;;;;10050877;29;20232;-87
2023/12/07 06:24:11;;;;;;;31.70;16.97;;;;;2.30;101308.00;;;;10076481;29;20296;-87
2023/12/07 06:29:12;;;;;;;27.43;16.33;;;;;2.20;101311.00;;;;10065725;29;20239;-87
2023/12/07 06:34:13;;;;;;;27.90;16.57;;;;;2.20;101319.00;;;;10057975;29;20251;-88
2023/12/07 06:39:15;;;;;;;27.77;16.30;;;;;2.10;101305.00;;;;10068779;29;20242;-87
2023/12/07 06:44:16;;;;;;;28.13;17.50;;;;;2.10;101314.00;;;;10057104;29;20240;-88
2023/12/07 06:49:17;;;;;;;32.30;17.10;;;;;2.10;101313.00;;;;10040167;29;21039;-81
2023/12/07 06:54:19;;;;;;;27.50;16.53;;;;;2.10;101312.00;;;;10063756;29;20243;-81
2023/12/07 06:59:20;;;;;;;29.00;16.63;;;;;2.00;101327.00;;;;10040175;29;20234;-80
2023/12/07 07:04:21;;;;;;;32.70;18.43;;;;;1.90;101319.00;;;;10032573;29;20258;-80
2023/12/07 07:09:22;;;;;;;26.67;16.20;;;;;1.90;101319.00;;;;10043430;29;20220;-81
2023/12/07 07:14:23;;;;;;;33.50;17.07;;;;;1.80;101305.00;;;;10044173;29;20284;-81
2023/12/07 07:19:24;;;;;;;34.80;18.20;;;;;1.90;101301.00;;;;10038575;29;20223;-81
2023/12/07 07:24:26;;;;;;;33.63;17.20;;;;;1.80;101306.00;;;;10057645;29;20295;-81
2023/12/07 07:29:27;;;;;;;33.77;18.00;;;;;1.80;101306.00;;;;10040782;29;20225;-81
2023/12/07 07:34:31;;;;;;;29.30;18.20;;;;;1.70;101308.00;;;;10050326;29;20680;-80
2023/12/07 07:39:32;;;;;;;34.70;17.30;;;;;1.60;101319.00;;;;10052825;29;20312;-80
2023/12/07 07:44:34;;;;;;;35.17;17.87;;;;;1.60;101316.00;;;;10053663;29;20243;-81
2023/12/07 07:49:35;;;;;;;34.37;19.47;;;;;1.60;101324.00;;;;10056727;29;20232;-85
2023/12/07 07:54:36;;;;;;;27.20;14.70;;;;;1.50;101332.00;;;;10040051;29;20257;-81
2023/12/07 07:59:38;;;;;;;31.30;17.67;;;;;1.50;101322.00;;;;10061151;29;20293;-79
2023/12/07 08:04:39;;;;;;;28.77;15.87;;;;;1.60;101302.00;;;;10028691;29;20780;-79
2023/12/07 08:09:40;;;;;;;28.40;16.17;;;;;1.70;101299.00;;;;10060233;29;20584;-80
2023/12/07 08:14:43;;;;;;;36.90;17.43;;;;;2.00;101308.00;;;;10069705;29;20244;-79
2023/12/07 08:19:44;;;;;;;32.10;16.30;;;;;2.20;101297.00;;;;10046697;29;20236;-79
2023/12/07 08:24:46;;;;;;;33.53;16.77;;;;;2.40;101300.00;;;;10021054;29;20232;-79
2023/12/07 08:29:55;;;;;;;33.37;17.73;;;;;2.50;101285.00;;;;10016103;29;20228;-79
2023/12/07 08:34:57;;;;;;;30.93;17.33;;;;;2.60;101292.00;;;;10043049;29;20223;-79
2023/12/07 08:39:58;;;;;;;30.93;16.17;;;;;2.90;101285.00;;;;10059624;29;20236;-80
2023/12/07 08:44:59;;;;;;;33.13;16.87;;;;;3.20;101283.00;;;;10037447;29;20236;-79
2023/12/07 08:50:01;;;;;;;31.23;17.43;;;;;3.50;101287.00;;;;10053087;29;20275;-79
2023/12/07 08:55:02;;;;;;;26.50;15.67;;;;;3.50;101293.00;;;;10033751;29;20907;-79
2023/12/07 09:00:05;;;;;;;24.13;15.10;;;;;3.40;101287.00;;;;10043936;29;20235;-79
2023/12/07 09:05:07;;;;;;;28.73;14.87;;;;;3.50;101273.00;;;;10053419;29;20938;-79
2023/12/07 09:10:08;;;;;;;26.60;15.63;;;;;3.60;101280.00;;;;10102145;29;20235;-90
2023/12/07 09:15:10;;;;;;;24.33;14.47;;;;;3.80;101273.00;;;;10078520;29;20284;-91
2023/12/07 09:20:14;;;;;;;23.87;15.90;;;;;3.90;101263.00;;;;10086886;29;20262;-90
2023/12/07 09:25:17;;;;;;;26.93;14.90;;;;;4.10;101264.00;;;;10057657;29;20227;-87
2023/12/07 09:30:18;;;;;;;27.23;15.40;;;;;4.30;101255.00;;;;10056052;29;20228;-90
2023/12/07 09:35:19;;;;;;;22.33;15.17;;;;;4.30;101263.00;;;;10085335;29;20650;-89
2023/12/07 09:40:24;;;;;;;29.40;13.90;;;;;4.30;101261.00;;;;10082332;29;20256;-89
2023/12/07 09:45:25;;;;;;;24.23;14.33;;;;;4.50;101259.00;;;;10084792;29;20318;-88
2023/12/07 09:50:30;;;;;;;26.57;15.13;;;;;4.70;101251.00;;;;10052760;29;20260;-88
2023/12/07 09:55:31;;;;;;;24.03;15.53;;;;;4.90;101246.00;;;;10039497;29;20739;-90
2023/12/07 10:00:33;;;;;;;23.80;15.20;;;;;5.10;101232.00;;;;10034140;29;20224;-90
2023/12/07 10:05:34;;;;;;;30.33;17.50;;;;;5.50;101218.00;;;;10041489;29;20232;-89
2023/12/07 10:10:37;;;;;;;23.20;16.00;;;;;5.90;101203.00;;;;10077681;29;20873;-88
2023/12/07 10:15:38;;;;;;;21.07;13.90;;;;;6.40;101200.00;;;;10052947;29;20683;-89
2023/12/07 10:20:45;;;;;;;17.07;11.53;;;;;6.10;101182.00;;;;10036549;29;20902;-80
2023/12/07 10:25:46;;;;;;;21.30;11.77;;;;;5.80;101169.00;;;;10047465;29;20268;-80
2023/12/07 10:30:47;;;;;;;14.40;10.17;;;;;6.10;101182.00;;;;10055376;29;20315;-79
2023/12/07 10:35:49;;;;;;;12.73;9.80;;;;;6.40;101186.00;;;;10049553;29;20336;-80
2023/12/07 10:41:09;;;;;;;15.20;9.23;;;;;6.70;101170.00;;;;10042567;29;20876;-80
2023/12/07 10:46:16;;;;;;;10.53;7.83;;;;;6.70;101160.00;;;;10061748;29;20225;-80
2023/12/07 10:51:24;;;;;;;13.17;8.40;;;;;6.40;101152.00;;;;10032559;29;20248;-80
2023/12/07 10:56:34;;;;;;;15.23;8.57;;;;;6.30;101126.00;;;;10042614;29;20942;-80
2023/12/07 11:01:40;;;;;;;17.97;8.27;;;;;6.00;101132.00;;;;10048973;29;20236;-80
2023/12/07 11:06:44;;;;;;;12.00;8.10;;;;;5.90;101107.00;;;;10038918;29;20264;-79
2023/12/07 11:12:07;;;;;;;15.03;9.00;;;;;5.90;101117.00;;;;10066046;29;20999;-80
2023/12/07 11:17:08;;;;;;;9.87;8.00;;;;;6.00;101111.00;;;;10050615;29;20232;-80
2023/12/07 11:22:11;;;;;;;15.43;7.90;;;;;6.20;101114.00;;;;10044546;29;20236;-79
2023/12/07 11:27:13;;;;;;;12.33;8.50;;;;;6.40;101094.00;;;;10034674;29;20219;-80
2023/12/07 11:32:14;;;;;;;14.00;8.03;;;;;6.50;101092.00;;;;10054864;29;20271;-80
2023/12/07 11:38:08;;;;;;;15.03;7.80;;;;;6.50;101071.00;;;;10021689;29;20340;-80
2023/12/07 11:43:33;;;;;;;17.67;9.07;;;;;6.60;101069.00;;;;10028676;29;20232;-79
2023/12/07 11:48:35;;;;;;;13.43;8.00;;;;;6.70;101066.00;;;;10043860;29;20270;-80
2023/12/07 11:53:37;;;;;;;12.93;7.50;;;;;6.50;101054.00;;;;10058001;29;20228;-81
2023/12/07 11:58:39;;;;;;;13.03;7.50;;;;;6.30;101034.00;;;;10044131;29;20809;-79
2023/12/07 12:03:43;;;;;;;11.53;7.57;;;;;6.20;101047.00;;;;10039506;29;20225;-80
2023/12/07 12:08:44;;;;;;;10.80;7.90;;;;;6.10;101026.00;;;;10030731;29;20240;-80
2023/12/07 12:13:47;;;;;;;13.00;7.57;;;;;6.00;101024.00;;;;10045363;29;20232;-80
2023/12/07 12:18:48;;;;;;;12.00;7.60;;;;;6.00;101010.00;;;;10050646;29;20282;-80
2023/12/07 12:23:51;;;;;;;10.87;7.60;;;;;5.90;101011.00;;;;10067434;29;20237;-79
2023/12/07 12:28:52;;;;;;;10.67;7.93;;;;;5.90;100981.00;;;;10042170;29;21329;-80
2023/12/07 12:33:54;;;;;;;11.80;8.03;;;;;5.90;100961.00;;;;10040154;29;20240;-80
2023/12/07 12:38:56;;;;;;;12.17;7.43;;;;;5.90;100940.00;;;;10078442;29;20252;-86
2023/12/07 12:43:59;;;;;;;11.10;8.40;;;;;5.90;100936.00;;;;10043589;29;20444;-86
2023/12/07 12:49:02;;;;;;;11.77;7.40;;;;;5.90;100930.00;;;;10053907;29;20251;-87
2023/12/07 12:54:03;;;;;;;12.73;7.33;;;;;5.90;100914.00;;;;10051799;29;20224;-88
2023/12/07 12:59:04;;;;;;;10.83;7.37;;;;;5.90;100909.00;;;;10040597;29;20256;-86
2023/12/07 13:04:09;;;;;;;9.57;7.00;;;;;5.90;100908.00;;;;10034137;29;20232;-86
2023/12/07 13:09:10;;;;;;;10.97;6.93;;;;;5.90;100917.00;;;;10037215;29;20225;-86
2023/12/07 13:14:11;;;;;;;8.23;5.83;;;;;5.90;100910.00;;;;10061418;29;20253;-86
2023/12/07 13:19:12;;;;;;;12.47;6.90;;;;;6.00;100909.00;;;;10040190;29;20260;-86
2023/12/07 13:24:14;;;;;;;13.27;6.47;;;;;6.00;100909.00;;;;10040154;29;20224;-87
2023/12/07 13:29:15;;;;;;;10.40;6.80;;;;;6.10;100912.00;;;;10033805;29;20261;-86
2023/12/07 13:34:29;;;;;;;10.70;7.27;;;;;6.20;100892.00;;;;10066496;29;20251;-85
2023/12/07 13:39:31;;;;;;;11.63;6.33;;;;;6.20;100882.00;;;;10042447;29;20226;-86
2023/12/07 13:44:33;;;;;;;10.03;6.73;;;;;6.10;100863.00;;;;10033730;29;20260;-87
2023/12/07 13:49:34;;;;;;;7.73;5.97;;;;;6.00;100854.00;;;;10046941;29;20226;-80
2023/12/07 13:54:36;;;;;;;10.13;6.70;;;;;5.90;100829.00;;;;10067395;29;20279;-80
2023/12/07 13:59:54;;;;;;;8.13;5.83;;;;;5.80;100813.00;;;;10018796;29;20256;-80
2023/12/07 14:04:56;;;;;;;8.30;6.00;;;;;5.70;100807.00;;;;10048768;29;20252;-80
2023/12/07 14:09:57;;;;;;;8.70;6.07;;;;;5.60;100809.00;;;;10040967;29;20287;-80
2023/12/07 14:15:00;;;;;;;7.27;5.73;;;;;5.50;100796.00;;;;10059220;29;20224;-81
2023/12/07 14:20:03;;;;;;;8.40;6.00;;;;;5.30;100786.00;;;;10048351;29;20251;-80
2023/12/07 14:25:24;;;;;;;10.00;6.47;;;;;5.20;100767.00;;;;10070908;29;20244;-80
2023/12/07 14:30:26;;;;;;;9.47;6.50;;;;;5.10;100759.00;;;;10057250;29;20331;-80
2023/12/07 14:35:27;;;;;;;12.97;7.13;;;;;5.00;100747.00;;;;10017710;29;20235;-79
2023/12/07 14:40:28;;;;;;;12.20;7.27;;;;;4.80;100749.00;;;;10048044;29;20298;-80
2023/12/07 14:45:30;;;;;;;13.90;7.87;;;;;4.70;100737.00;;;;10062234;29;20232;-80
2023/12/07 14:50:31;;;;;;;14.50;8.30;;;;;4.60;100732.00;;;;10054315;29;20235;-80
2023/12/07 14:55:32;;;;;;;13.67;8.57;;;;;4.50;100730.00;;;;10047637;29;20236;-80
2023/12/07 15:00:33;;;;;;;11.63;8.10;;;;;4.30;100715.00;;;;10052660;29;20298;-79
2023/12/07 15:05:34;;;;;;;11.70;8.40;;;;;4.30;100720.00;;;;10013216;29;20588;-80
2023/12/07 15:10:36;;;;;;;8.73;6.80;;;;;4.20;100711.00;;;;10041219;29;20298;-80
2023/12/07 15:15:37;;;;;;;13.03;7.53;;;;;4.20;100700.00;;;;10061189;29;20323;-80
2023/12/07 15:20:38;;;;;;;9.97;7.17;;;;;4.10;100704.00;;;;10049093;29;21066;-80
2023/12/07 15:25:39;;;;;;;11.83;8.10;;;;;4.00;100686.00;;;;10060093;29;20267;-80
2023/12/07 15:30:40;;;;;;;10.03;7.87;;;;;3.90;100674.00;;;;10030376;29;20235;-80
2023/12/07 15:35:42;;;;;;;9.43;7.00;;;;;3.90;100658.00;;;;10041512;29;20268;-80
2023/12/07 15:40:43;;;;;;;9.97;7.03;;;;;3.80;100650.00;;;;10062775;29;20310;-80
2023/12/07 15:45:44;;;;;;;12.80;7.50;;;;;3.80;100642.00;;;;10038637;29;20808;-80
2023/12/07 15:50:49;;;;;;;9.97;7.07;;;;;3.80;100640.00;;;;10052352;29;20228;-81
2023/12/07 15:55:50;;;;;;;10.47;6.73;;;;;3.70;100635.00;;;;10075139;29;20233;-80
2023/12/07 16:00:51;;;;;;;9.90;6.20;;;;;3.70;100633.00;;;;10043064;29;20360;-80
2023/12/07 16:05:53;;;;;;;8.63;6.37;;;;;3.60;100619.00;;;;10041304;29;20809;-81
2023/12/07 16:10:54;;;;;;;11.30;6.03;;;;;3.60;100605.00;;;;10059913;29;20283;-80
2023/12/07 16:15:55;;;;;;;9.27;7.10;;;;;3.60;100613.00;;;;10057422;29;20273;-80
2023/12/07 16:20:57;;;;;;;10.13;6.40;;;;;3.60;100616.00;;;;10035724;29;20233;-80
2023/12/07 16:25:59;;;;;;;11.70;7.30;;;;;3.50;100618.00;;;;10033814;29;20236;-79
2023/12/07 16:31:00;;;;;;;11.67;7.30;;;;;3.50;100628.00;;;;10034263;29;20276;-80
2023/12/07 16:36:02;;;;;;;11.90;7.07;;;;;3.40;100613.00;;;;10026710;29;20228;-79
2023/12/07 16:41:11;;;;;;;13.40;6.53;;;;;3.40;100613.00;;;;10023877;29;20568;-80
2023/12/07 16:46:12;;;;;;;8.43;6.30;;;;;3.40;100598.00;;;;10062015;29;20751;-80
2023/12/07 16:51:13;;;;;;;12.30;7.60;;;;;3.40;100600.00;;;;10060092;29;20624;-80
2023/12/07 16:56:15;;;;;;;11.00;7.13;;;;;3.30;100593.00;;;;10057927;29;20238;-80
2023/12/07 17:01:16;;;;;;;10.37;7.20;;;;;3.30;100575.00;;;;10043567;29;20228;-80
2023/12/07 17:06:19;;;;;;;11.40;7.00;;;;;3.30;100581.00;;;;10048596;29;20228;-80
2023/12/07 17:11:20;;;;;;;11.30;7.40;;;;;3.30;100571.00;;;;10046184;29;20227;-79
2023/12/07 17:16:21;;;;;;;11.13;6.53;;;;;3.30;100561.00;;;;10051541;29;20252;-80
2023/12/07 17:21:24;;;;;;;11.80;7.93;;;;;3.30;100569.00;;;;10036897;29;20265;-79
2023/12/07 17:26:25;;;;;;;13.73;6.83;;;;;3.30;100550.00;;;;10049296;29;20228;-80
2023/12/07 17:31:30;;;;;;;11.47;7.37;;;;;3.30;100553.00;;;;10051898;29;20234;-79
2023/12/07 17:36:31;;;;;;;15.87;7.57;;;;;3.30;100535.00;;;;10045016;29;20220;-79
2023/12/07 17:41:32;;;;;;;13.43;7.53;;;;;3.30;100546.00;;;;10073463;29;20232;-79
2023/12/07 17:46:34;;;;;;;9.53;7.13;;;;;3.30;100542.00;;;;10070984;29;20647;-79
2023/12/07 17:51:35;;;;;;;13.77;7.83;;;;;3.30;100533.00;;;;10046196;29;20277;-79
2023/12/07 17:56:39;;;;;;;10.53;7.13;;;;;3.40;100527.00;;;;10056899;29;20236;-79
2023/12/07 18:01:41;;;;;;;11.27;7.53;;;;;3.40;100517.00;;;;10058611;29;20237;-79
2023/12/07 18:06:42;;;;;;;11.37;6.90;;;;;3.40;100516.00;;;;10039144;29;20260;-80
2023/12/07 18:11:44;;;;;;;12.60;7.60;;;;;3.40;100519.00;;;;10056888;29;20933;-79
2023/12/07 18:16:46;;;;;;;16.00;7.63;;;;;3.40;100515.00;;;;10041514;29;20316;-79
2023/12/07 18:21:47;;;;;;;15.20;7.67;;;;;3.40;100519.00;;;;10040593;29;20229;-79
2023/12/07 18:26:49;;;;;;;13.43;7.10;;;;;3.40;100502.00;;;;10051046;29;20232;-86
2023/12/07 18:31:51;;;;;;;11.93;7.30;;;;;3.40;100483.00;;;;10067017;29;20256;-87
2023/12/07 18:36:52;;;;;;;11.57;7.00;;;;;3.40;100449.00;;;;10051255;29;20228;-88
2023/12/07 18:41:53;;;;;;;21.43;12.87;;;;;3.40;100449.00;;;;10067620;29;20747;-87
2023/12/07 18:46:54;;;;;;;18.60;11.87;;;;;3.40;100436.00;;;;10066067;29;20234;-87
2023/12/07 18:51:56;;;;;;;11.73;8.23;;;;;3.50;100430.00;;;;10043257;29;20255;-87
2023/12/07 18:56:57;;;;;;;13.37;6.77;;;;;3.50;100406.00;;;;10043388;29;20239;-86
2023/12/07 19:01:58;;;;;;;11.00;6.07;;;;;3.60;100374.00;;;;10058493;29;20245;-87
2023/12/07 19:06:59;;;;;;;9.47;6.13;;;;;3.60;100353.00;;;;10045115;29;20223;-86
2023/12/07 19:12:03;;;;;;;8.77;5.43;;;;;3.70;100355.00;;;;10066639;29;20674;-86
2023/12/07 19:17:05;;;;;;;11.40;5.97;;;;;3.70;100348.00;;;;10031497;29;20236;-87
2023/12/07 19:22:06;;;;;;;10.50;5.77;;;;;3.80;100335.00;;;;10061670;29;20657;-87
2023/12/07 19:27:07;;;;;;;7.43;5.83;;;;;3.80;100319.00;;;;10060681;29;20232;-87
2023/12/07 19:32:08;;;;;;;7.43;4.83;;;;;3.90;100320.00;;;;10049240;29;20234;-86
2023/12/07 19:37:09;;;;;;;7.07;4.67;;;;;3.90;100324.00;;;;10032742;29;20279;-88
2023/12/07 19:42:11;;;;;;;6.07;4.87;;;;;4.00;100333.00;;;;10044871;29;20255;-88
2023/12/07 19:47:12;;;;;;;7.37;4.77;;;;;3.90;100320.00;;;;10035063;29;20225;-88
2023/12/07 19:52:13;;;;;;;10.17;5.37;;;;;3.90;100299.00;;;;10047145;29;20221;-88
2023/12/07 19:57:15;;;;;;;8.50;5.63;;;;;3.90;100291.00;;;;10049474;29;20228;-89
2023/12/07 20:02:16;;;;;;;7.03;4.57;;;;;3.90;100266.00;;;;10047979;29;20671;-88
2023/12/07 20:07:20;;;;;;;6.57;4.63;;;;;3.80;100251.00;;;;10059133;29;20255;-88
2023/12/07 20:12:21;;;;;;;6.37;5.13;;;;;3.80;100221.00;;;;10045313;29;20227;-88
2023/12/07 20:17:24;;;;;;;8.67;5.47;;;;;3.80;100197.00;;;;10021659;29;20311;-89
2023/12/07 20:22:25;;;;;;;7.60;5.27;;;;;3.90;100197.00;;;;10063316;29;20230;-87
2023/12/07 20:27:26;;;;;;;8.27;4.97;;;;;3.80;100170.00;;;;10039492;29;20263;-87
2023/12/07 20:32:28;;;;;;;7.70;5.13;;;;;3.80;100162.00;;;;10045366;29;20734;-88
2023/12/07 20:37:31;;;;;;;8.53;5.63;;;;;3.70;100154.00;;;;10042512;29;20231;-89
2023/12/07 20:42:33;;;;;;;7.03;5.30;;;;;3.70;100171.00;;;;10029921;29;20232;-88
2023/12/07 20:47:34;;;;;;;8.00;6.00;;;;;3.60;100219.00;;;;10072699;29;20247;-80
2023/12/07 20:52:35;;;;;;;8.50;5.57;;;;;3.60;100190.00;;;;10030062;29;20298;-80
2023/12/07 20:57:36;;;;;;;8.53;5.10;;;;;3.60;100188.00;;;;10012991;29;20936;-79
2023/12/07 21:02:38;;;;;;;7.63;5.30;;;;;3.60;100177.00;;;;10041184;29;20240;-80
2023/12/07 21:07:39;;;;;;;9.43;6.00;;;;;3.70;100130.00;;;;10056342;29;20231;-80
2023/12/07 21:12:40;;;;;;;7.50;5.20;;;;;3.70;100135.00;;;;10055573;29;20267;-80
2023/12/07 21:17:41;;;;;;;6.23;4.80;;;;;3.70;100122.00;;;;10060085;29;20352;-80
2023/12/07 21:22:43;;;;;;;8.80;4.97;;;;;3.70;100120.00;;;;10046926;29;20918;-79
2023/12/07 21:27:44;;;;;;;6.70;5.03;;;;;3.70;100113.00;;;;10051066;29;20232;-80
2023/12/07 21:32:45;;;;;;;9.63;5.27;;;;;3.70;100109.00;;;;10057431;29;20368;-80
2023/12/07 21:37:46;;;;;;;6.90;5.87;;;;;3.70;100095.00;;;;10067354;29;20232;-80
2023/12/07 21:42:48;;;;;;;8.03;5.37;;;;;3.70;100119.00;;;;10036721;29;20315;-79
2023/12/07 21:47:50;;;;;;;8.13;4.90;;;;;3.70;100124.00;;;;10044744;29;20231;-80
2023/12/07 21:52:51;;;;;;;10.30;5.80;;;;;3.70;100117.00;;;;10056078;29;20302;-80
2023/12/07 21:57:52;;;;;;;7.43;5.57;;;;;3.70;100114.00;;;;10073931;29;20540;-89
2023/12/07 22:02:54;;;;;;;6.57;5.00;;;;;3.80;100098.00;;;;10089740;29;20232;-87
2023/12/07 22:07:55;;;;;;;7.43;5.10;;;;;3.70;100095.00;;;;10080578;29;20231;-89
2023/12/07 22:12:57;;;;;;;6.40;5.10;;;;;3.80;100090.00;;;;10057225;29;20287;-88
2023/12/07 22:17:58;;;;;;;7.40;5.10;;;;;3.70;100092.00;;;;10050343;29;20267;-88
2023/12/07 22:23:00;;;;;;;8.03;5.13;;;;;3.80;100135.00;;;;10089896;29;20232;-88
2023/12/07 22:28:02;;;;;;;8.17;4.63;;;;;3.80;100130.00;;;;10059512;29;20253;-88
2023/12/07 22:33:03;;;;;;;7.10;4.80;;;;;3.80;100129.00;;;;10069962;29;20232;-89
2023/12/07 22:38:05;;;;;;;6.93;5.67;;;;;3.80;100133.00;;;;10045052;29;20237;-88
2023/12/07 22:43:06;;;;;;;5.87;4.73;;;;;3.80;100114.00;;;;10087373;29;20248;-88
2023/12/07 22:48:07;;;;;;;6.73;5.03;;;;;3.70;100102.00;;;;10059326;29;20224;-87
2023/12/07 22:53:08;;;;;;;6.93;4.93;;;;;3.70;100101.00;;;;10080071;29;20233;-87
2023/12/07 22:58:10;;;;;;;8.23;5.13;;;;;3.70;100099.00;;;;10085728;29;20239;-88
2023/12/07 23:03:11;;;;;;;7.00;5.03;;;;;3.70;100115.00;;;;10060528;29;20242;-88
2023/12/07 23:08:12;;;;;;;8.93;5.30;;;;;3.70;100097.00;;;;10066743;29;20328;-79
2023/12/07 23:13:13;;;;;;;6.23;4.63;;;;;3.70;100101.00;;;;10061718;29;20242;-78
2023/12/07 23:18:15;;;;;;;8.10;5.43;;;;;3.70;100088.00;;;;10058944;29;20883;-80
2023/12/07 23:23:16;;;;;;;6.03;4.43;;;;;3.80;100095.00;;;;10046941;29;20231;-79
2023/12/07 23:28:18;;;;;;;8.60;5.07;;;;;3.80;100079.00;;;;10059255;29;20635;-80
2023/12/07 23:33:19;;;;;;;7.97;4.73;;;;;3.80;100078.00;;;;10022752;29;20781;-79
2023/12/07 23:38:20;;;;;;;5.93;4.57;;;;;3.80;100076.00;;;;10052292;29;20232;-79
2023/12/07 23:43:22;;;;;;;5.87;3.80;;;;;3.80;100073.00;;;;10045375;29;20236;-79
2023/12/07 23:48:23;;;;;;;5.93;4.13;;;;;3.90;100055.00;;;;10034405;29;20808;-79
2023/12/07 23:53:24;;;;;;;5.17;4.00;;;;;4.00;100058.00;;;;10047287;29;20228;-79
2023/12/07 23:58:25;;;;;;;5.40;4.07;;;;;4.10;100050.00;;;;10067766;29;21313;-79
